BAW273 EGLL-TBPB
Flight info
| Callsign | BAW273 |
|---|---|
| Flight time | N/A |
| Altitude | 26000 |
| Route | CPT Q63 MALBY SL2 C/KESUP/N0741F260F450 SL2 C/LESLU/M200F450F600 DCT 4849N01443W 4649N02000W 4500N02353W 4136N03000W 3422N04000W 2700N04748W 2438N05000W 1800N05539W/N0649F390 DCT BGI |
| Aircraft | CONC/H-SDFHIRY/C |
Departure
| Time | 2026-05-05 07:30 |
|---|---|
| Airport | London Heathrow Airport (EGLL) |
Arrival
| Time | N/A |
|---|---|
| Airport | Grantley Adams International Airport (TBPB) |
| Time | Latitude | Longitude | Altitude | Speed | Heading |
|---|---|---|---|---|---|
| 2026-05-05 06:55 | 51.46058 | -0.44501 | 95 ft | 0 kts | 293° |
| 2026-05-05 07:16 | 51.46055 | -0.44491 | 94 ft | 2 kts | 293° |
| 2026-05-05 07:16 | 51.46048 | -0.44466 | 94 ft | 3 kts | 293° |
| 2026-05-05 07:16 | 51.46040 | -0.44437 | 94 ft | 3 kts | 293° |
| 2026-05-05 07:16 | 51.46032 | -0.44407 | 94 ft | 3 kts | 293° |
| 2026-05-05 07:17 | 51.46024 | -0.44377 | 94 ft | 3 kts | 293° |
| 2026-05-05 07:17 | 51.46019 | -0.44360 | 94 ft | 0 kts | 293° |
| 2026-05-05 07:20 | 51.46026 | -0.44373 | 94 ft | 3 kts | 316° |
| 2026-05-05 07:20 | 51.46057 | -0.44374 | 94 ft | 6 kts | 19° |
| 2026-05-05 07:20 | 51.46108 | -0.44341 | 94 ft | 10 kts | 22° |
| 2026-05-05 07:21 | 51.46179 | -0.44292 | 94 ft | 13 kts | 24° |
| 2026-05-05 07:21 | 51.46270 | -0.44228 | 94 ft | 16 kts | 21° |
| 2026-05-05 07:21 | 51.46327 | -0.44357 | 94 ft | 19 kts | 271° |
| 2026-05-05 07:21 | 51.46326 | -0.44535 | 94 ft | 13 kts | 270° |
| 2026-05-05 07:22 | 51.46326 | -0.44694 | 94 ft | 16 kts | 270° |
| 2026-05-05 07:22 | 51.46325 | -0.44889 | 94 ft | 19 kts | 270° |
| 2026-05-05 07:22 | 51.46325 | -0.45088 | 94 ft | 14 kts | 269° |
| 2026-05-05 07:22 | 51.46324 | -0.45261 | 94 ft | 17 kts | 270° |
| 2026-05-05 07:23 | 51.46324 | -0.45469 | 94 ft | 19 kts | 270° |
| 2026-05-05 07:23 | 51.46326 | -0.45638 | 94 ft | 17 kts | 274° |
| 2026-05-05 07:23 | 51.46327 | -0.45827 | 94 ft | 14 kts | 269° |
| 2026-05-05 07:23 | 51.46326 | -0.45943 | 94 ft | 12 kts | 271° |
| 2026-05-05 07:24 | 51.46327 | -0.46091 | 94 ft | 15 kts | 270° |
| 2026-05-05 07:24 | 51.46326 | -0.46270 | 94 ft | 14 kts | 269° |
| 2026-05-05 07:24 | 51.46325 | -0.46441 | 94 ft | 17 kts | 269° |
| 2026-05-05 07:24 | 51.46324 | -0.46624 | 94 ft | 16 kts | 269° |
| 2026-05-05 07:25 | 51.46323 | -0.46819 | 94 ft | 19 kts | 270° |
| 2026-05-05 07:25 | 51.46322 | -0.46971 | 95 ft | 20 kts | 270° |
| 2026-05-05 07:25 | 51.46321 | -0.47191 | 94 ft | 16 kts | 269° |
| 2026-05-05 07:25 | 51.46329 | -0.47375 | 95 ft | 15 kts | 287° |
| 2026-05-05 07:26 | 51.46339 | -0.47542 | 95 ft | 15 kts | 270° |
| 2026-05-05 07:26 | 51.46309 | -0.47715 | 95 ft | 18 kts | 241° |
| 2026-05-05 07:26 | 51.46252 | -0.47916 | 94 ft | 21 kts | 268° |
| 2026-05-05 07:26 | 51.46250 | -0.48137 | 94 ft | 20 kts | 269° |
| 2026-05-05 07:27 | 51.46250 | -0.48381 | 95 ft | 23 kts | 270° |
| 2026-05-05 07:27 | 51.46261 | -0.48620 | 94 ft | 21 kts | 293° |
| 2026-05-05 07:27 | 51.46356 | -0.48747 | 94 ft | 18 kts | 346° |
| 2026-05-05 07:27 | 51.46460 | -0.48743 | 94 ft | 9 kts | 31° |
| 2026-05-05 07:28 | 51.46479 | -0.48636 | 95 ft | 4 kts | 89° |
| 2026-05-05 07:28 | 51.46479 | -0.48635 | 94 ft | 0 kts | 89° |
| 2026-05-05 07:29 | 51.46480 | -0.48362 | 94 ft | 64 kts | 89° |
| 2026-05-05 07:29 | 51.46484 | -0.47207 | 94 ft | 142 kts | 89° |
| 2026-05-05 07:29 | 51.46489 | -0.45226 | 95 ft | 211 kts | 89° |
| 2026-05-05 07:29 | 51.46482 | -0.42662 | 300 ft | 245 kts | 90° |
| 2026-05-05 07:30 | 51.46123 | -0.39903 | 1052 ft | 260 kts | 116° |
| 2026-05-05 07:30 | 51.43506 | -0.36532 | 1803 ft | 255 kts | 180° |
| 2026-05-05 07:30 | 51.41798 | -0.37242 | 1943 ft | 261 kts | 219° |
| 2026-05-05 07:31 | 51.40684 | -0.39492 | 2131 ft | 263 kts | 259° |
| 2026-05-05 07:31 | 51.40687 | -0.42379 | 2396 ft | 264 kts | 284° |
| 2026-05-05 07:31 | 51.41085 | -0.45259 | 2744 ft | 265 kts | 284° |
| 2026-05-05 07:31 | 51.41459 | -0.48158 | 3138 ft | 267 kts | 282° |
| 2026-05-05 07:32 | 51.41795 | -0.51092 | 3561 ft | 268 kts | 281° |
| 2026-05-05 07:32 | 51.42093 | -0.54052 | 4010 ft | 269 kts | 280° |
| 2026-05-05 07:32 | 51.42375 | -0.57024 | 4479 ft | 271 kts | 279° |
| 2026-05-05 07:32 | 51.42656 | -0.60020 | 4982 ft | 272 kts | 279° |
| 2026-05-05 07:33 | 51.42939 | -0.63027 | 5540 ft | 274 kts | 279° |
| 2026-05-05 07:33 | 51.43230 | -0.66046 | 6284 ft | 275 kts | 280° |
| 2026-05-05 07:33 | 51.43533 | -0.69103 | 7243 ft | 283 kts | 280° |
| 2026-05-05 07:33 | 51.43851 | -0.72313 | 8231 ft | 302 kts | 279° |
| 2026-05-05 07:34 | 51.44193 | -0.75814 | 9102 ft | 337 kts | 279° |
| 2026-05-05 07:34 | 51.44574 | -0.79744 | 9543 ft | 375 kts | 279° |
| 2026-05-05 07:34 | 51.44985 | -0.84022 | 9935 ft | 400 kts | 279° |
| 2026-05-05 07:34 | 51.45429 | -0.88525 | 10320 ft | 417 kts | 279° |
| 2026-05-05 07:35 | 51.45918 | -0.93198 | 10699 ft | 432 kts | 280° |
| 2026-05-05 07:35 | 51.46456 | -0.98024 | 11078 ft | 446 kts | 280° |
| 2026-05-05 07:35 | 51.47028 | -1.02988 | 11473 ft | 460 kts | 280° |
| 2026-05-05 07:35 | 51.47623 | -1.08103 | 11981 ft | 472 kts | 280° |
| 2026-05-05 07:36 | 51.48220 | -1.13246 | 12700 ft | 478 kts | 280° |
| 2026-05-05 07:36 | 51.48818 | -1.18518 | 13550 ft | 483 kts | 280° |
| 2026-05-05 07:36 | 51.49420 | -1.23849 | 14387 ft | 488 kts | 280° |
| 2026-05-05 07:36 | 51.50036 | -1.29236 | 15228 ft | 493 kts | 280° |
| 2026-05-05 07:37 | 51.50678 | -1.34671 | 16031 ft | 499 kts | 281° |
| 2026-05-05 07:37 | 51.51342 | -1.40167 | 16831 ft | 504 kts | 281° |
| 2026-05-05 07:37 | 51.52017 | -1.45718 | 17664 ft | 509 kts | 281° |
| 2026-05-05 07:37 | 51.52713 | -1.51324 | 18537 ft | 515 kts | 281° |
| 2026-05-05 07:38 | 51.53432 | -1.56992 | 19467 ft | 520 kts | 281° |
| 2026-05-05 07:38 | 51.54165 | -1.62720 | 20445 ft | 527 kts | 281° |
| 2026-05-05 07:38 | 51.54893 | -1.68511 | 21481 ft | 533 kts | 280° |
| 2026-05-05 07:38 | 51.55601 | -1.74405 | 22505 ft | 541 kts | 279° |
| 2026-05-05 07:39 | 51.56277 | -1.80386 | 23463 ft | 547 kts | 278° |
| 2026-05-05 07:39 | 51.56943 | -1.86444 | 24324 ft | 554 kts | 278° |
| 2026-05-05 07:39 | 51.57614 | -1.92579 | 25106 ft | 560 kts | 278° |
| 2026-05-05 07:39 | 51.58297 | -1.98742 | 25754 ft | 562 kts | 279° |
| 2026-05-05 07:40 | 51.58877 | -2.04986 | 25999 ft | 565 kts | 272° |
| 2026-05-05 07:40 | 51.58686 | -2.11260 | 26019 ft | 562 kts | 258° |
| 2026-05-05 07:40 | 51.57880 | -2.17405 | 26030 ft | 561 kts | 255° |
| 2026-05-05 07:40 | 51.56908 | -2.23465 | 26032 ft | 561 kts | 253° |
| 2026-05-05 07:41 | 51.55871 | -2.29522 | 26031 ft | 560 kts | 253° |
| 2026-05-05 07:41 | 51.54811 | -2.35546 | 26031 ft | 560 kts | 253° |
| 2026-05-05 07:41 | 51.53735 | -2.41571 | 26030 ft | 561 kts | 253° |
| 2026-05-05 07:41 | 51.52658 | -2.47582 | 26029 ft | 561 kts | 252° |
| 2026-05-05 07:42 | 51.51583 | -2.53599 | 26028 ft | 561 kts | 253° |
| 2026-05-05 07:42 | 51.50515 | -2.59628 | 26027 ft | 562 kts | 253° |
| 2026-05-05 07:42 | 51.49457 | -2.65676 | 26026 ft | 562 kts | 253° |
| 2026-05-05 07:42 | 51.48430 | -2.71719 | 26026 ft | 562 kts | 253° |
| 2026-05-05 07:43 | 51.47438 | -2.77702 | 26027 ft | 563 kts | 254° |
| 2026-05-05 07:43 | 51.46444 | -2.83777 | 26027 ft | 563 kts | 254° |
| 2026-05-05 07:43 | 51.45454 | -2.89855 | 26029 ft | 563 kts | 254° |
| 2026-05-05 07:43 | 51.44495 | -2.95679 | 26031 ft | 564 kts | 254° |
| 2026-05-05 07:44 | 51.43478 | -3.01749 | 26033 ft | 564 kts | 253° |
| 2026-05-05 07:44 | 51.42449 | -3.07821 | 26037 ft | 564 kts | 253° |
| 2026-05-05 07:44 | 51.41413 | -3.13879 | 26042 ft | 565 kts | 253° |
| 2026-05-05 07:44 | 51.40370 | -3.19939 | 26046 ft | 565 kts | 253° |
| 2026-05-05 07:45 | 51.39326 | -3.26016 | 26049 ft | 565 kts | 253° |
| 2026-05-05 07:45 | 51.38289 | -3.32082 | 26052 ft | 565 kts | 253° |
| 2026-05-05 07:45 | 51.37253 | -3.38156 | 26053 ft | 565 kts | 253° |
| 2026-05-05 07:45 | 51.36209 | -3.44220 | 26053 ft | 566 kts | 253° |
| 2026-05-05 07:46 | 51.35155 | -3.50292 | 26053 ft | 566 kts | 253° |
| 2026-05-05 07:46 | 51.34098 | -3.56354 | 26052 ft | 566 kts | 253° |
| 2026-05-05 07:46 | 51.33219 | -3.62491 | 26045 ft | 567 kts | 262° |
| 2026-05-05 07:46 | 51.32845 | -3.68776 | 26111 ft | 571 kts | 266° |
| 2026-05-05 07:47 | 51.32673 | -3.75129 | 26927 ft | 575 kts | 268° |
| 2026-05-05 07:47 | 51.32600 | -3.81550 | 27797 ft | 582 kts | 269° |
| 2026-05-05 07:47 | 51.32614 | -3.88068 | 28507 ft | 589 kts | 270° |
| 2026-05-05 07:47 | 51.32681 | -3.94661 | 29014 ft | 595 kts | 271° |
| 2026-05-05 07:48 | 51.32771 | -4.01306 | 29351 ft | 600 kts | 271° |
| 2026-05-05 07:48 | 51.32870 | -4.08007 | 29647 ft | 605 kts | 271° |
| 2026-05-05 07:48 | 51.32971 | -4.14746 | 30000 ft | 609 kts | 271° |
| 2026-05-05 07:48 | 51.33063 | -4.21533 | 30346 ft | 612 kts | 271° |
| 2026-05-05 07:49 | 51.33127 | -4.28358 | 30698 ft | 616 kts | 271° |
| 2026-05-05 07:49 | 51.33169 | -4.35230 | 31038 ft | 620 kts | 271° |
| 2026-05-05 07:49 | 51.33198 | -4.42150 | 31399 ft | 624 kts | 271° |
| 2026-05-05 07:49 | 51.33220 | -4.49101 | 31806 ft | 628 kts | 271° |
| 2026-05-05 07:50 | 51.33236 | -4.56113 | 32190 ft | 634 kts | 271° |
| 2026-05-05 07:50 | 51.33253 | -4.63205 | 32531 ft | 643 kts | 271° |
| 2026-05-05 07:50 | 51.33277 | -4.70411 | 33002 ft | 654 kts | 271° |
| 2026-05-05 07:50 | 51.33307 | -4.77748 | 33550 ft | 668 kts | 271° |
| 2026-05-05 07:51 | 51.33330 | -4.85244 | 34115 ft | 682 kts | 271° |
| 2026-05-05 07:51 | 51.33267 | -4.92908 | 34688 ft | 697 kts | 268° |
| 2026-05-05 07:51 | 51.32944 | -5.00724 | 35232 ft | 711 kts | 265° |
| 2026-05-05 07:51 | 51.32460 | -5.08676 | 35741 ft | 726 kts | 264° |
| 2026-05-05 07:52 | 51.31846 | -5.16756 | 36212 ft | 740 kts | 263° |
| 2026-05-05 07:52 | 51.31120 | -5.24860 | 36679 ft | 753 kts | 262° |
| 2026-05-05 07:52 | 51.30303 | -5.33203 | 37133 ft | 766 kts | 261° |
| 2026-05-05 07:52 | 51.29426 | -5.41675 | 37587 ft | 779 kts | 261° |
| 2026-05-05 07:53 | 51.28506 | -5.50300 | 38055 ft | 794 kts | 260° |
| 2026-05-05 07:53 | 51.27557 | -5.59053 | 38532 ft | 808 kts | 260° |
| 2026-05-05 07:53 | 51.26578 | -5.67978 | 39015 ft | 823 kts | 260° |
| 2026-05-05 07:53 | 51.25578 | -5.77069 | 39478 ft | 839 kts | 260° |
| 2026-05-05 07:54 | 51.24561 | -5.86337 | 39915 ft | 856 kts | 260° |
| 2026-05-05 07:54 | 51.23537 | -5.95785 | 40358 ft | 872 kts | 260° |
| 2026-05-05 07:54 | 51.22511 | -6.05411 | 40769 ft | 888 kts | 261° |
| 2026-05-05 07:54 | 51.21476 | -6.15200 | 41172 ft | 904 kts | 261° |
| 2026-05-05 07:55 | 51.20423 | -6.25182 | 41555 ft | 919 kts | 261° |
| 2026-05-05 07:55 | 51.19344 | -6.35310 | 41919 ft | 934 kts | 260° |
| 2026-05-05 07:55 | 51.18229 | -6.45582 | 42264 ft | 949 kts | 260° |
| 2026-05-05 07:55 | 51.17074 | -6.56037 | 42594 ft | 963 kts | 260° |
| 2026-05-05 07:56 | 51.15888 | -6.66618 | 42902 ft | 977 kts | 260° |
| 2026-05-05 07:56 | 51.14669 | -6.77333 | 43249 ft | 987 kts | 260° |
| 2026-05-05 07:56 | 51.13430 | -6.88120 | 43561 ft | 994 kts | 259° |
| 2026-05-05 07:56 | 51.12170 | -6.98979 | 43859 ft | 1000 kts | 259° |
| 2026-05-05 07:57 | 51.10896 | -7.09883 | 44128 ft | 1006 kts | 259° |
| 2026-05-05 07:57 | 51.09605 | -7.20859 | 44379 ft | 1012 kts | 259° |
| 2026-05-05 07:57 | 51.08299 | -7.31891 | 44613 ft | 1017 kts | 259° |
| 2026-05-05 07:57 | 51.06838 | -7.42897 | 44787 ft | 1022 kts | 256° |
| 2026-05-05 07:58 | 51.05037 | -7.53852 | 44939 ft | 1025 kts | 254° |
| 2026-05-05 07:58 | 51.03034 | -7.64758 | 45109 ft | 1029 kts | 253° |
| 2026-05-05 07:58 | 51.00901 | -7.75630 | 45284 ft | 1033 kts | 252° |
| 2026-05-05 07:58 | 50.98668 | -7.86496 | 45453 ft | 1037 kts | 252° |
| 2026-05-05 07:59 | 50.96359 | -7.97350 | 45617 ft | 1041 kts | 251° |
| 2026-05-05 07:59 | 50.93975 | -8.08234 | 45774 ft | 1045 kts | 251° |
| 2026-05-05 07:59 | 50.91534 | -8.19113 | 45924 ft | 1048 kts | 250° |
| 2026-05-05 07:59 | 50.89039 | -8.29975 | 46069 ft | 1052 kts | 250° |
| 2026-05-05 08:00 | 50.86516 | -8.40699 | 46207 ft | 1055 kts | 250° |
| 2026-05-05 08:00 | 50.83904 | -8.51552 | 46345 ft | 1058 kts | 249° |
| 2026-05-05 08:00 | 50.81223 | -8.62433 | 46483 ft | 1062 kts | 249° |
| 2026-05-05 08:00 | 50.78487 | -8.73279 | 46622 ft | 1065 kts | 248° |
| 2026-05-05 08:01 | 50.75682 | -8.84120 | 46760 ft | 1068 kts | 248° |
| 2026-05-05 08:01 | 50.72790 | -8.94959 | 46894 ft | 1072 kts | 247° |
| 2026-05-05 08:01 | 50.69795 | -9.05732 | 47025 ft | 1075 kts | 246° |
| 2026-05-05 08:01 | 50.66698 | -9.16488 | 47154 ft | 1078 kts | 245° |
| 2026-05-05 08:02 | 50.63534 | -9.27208 | 47283 ft | 1081 kts | 245° |
| 2026-05-05 08:02 | 50.60314 | -9.37908 | 47409 ft | 1084 kts | 245° |
| 2026-05-05 08:02 | 50.57053 | -9.48607 | 47535 ft | 1087 kts | 244° |
| 2026-05-05 08:02 | 50.53755 | -9.59313 | 47661 ft | 1089 kts | 244° |
| 2026-05-05 08:03 | 50.50428 | -9.70045 | 47787 ft | 1092 kts | 244° |
| 2026-05-05 08:03 | 50.47084 | -9.80773 | 47913 ft | 1095 kts | 244° |
| 2026-05-05 08:03 | 50.43720 | -9.91535 | 48038 ft | 1098 kts | 244° |
| 2026-05-05 08:03 | 50.40354 | -10.02288 | 48162 ft | 1101 kts | 244° |
| 2026-05-05 08:04 | 50.36982 | -10.13071 | 48286 ft | 1104 kts | 244° |
| 2026-05-05 08:04 | 50.33615 | -10.23885 | 48408 ft | 1107 kts | 244° |
| 2026-05-05 08:04 | 50.30246 | -10.34744 | 48530 ft | 1109 kts | 244° |
| 2026-05-05 08:04 | 50.26885 | -10.45595 | 48658 ft | 1112 kts | 244° |
| 2026-05-05 08:05 | 50.23506 | -10.56495 | 48783 ft | 1115 kts | 244° |
| 2026-05-05 08:05 | 50.20112 | -10.67392 | 48907 ft | 1118 kts | 244° |
| 2026-05-05 08:05 | 50.16691 | -10.78285 | 49031 ft | 1121 kts | 244° |
| 2026-05-05 08:05 | 50.13233 | -10.89209 | 49146 ft | 1123 kts | 244° |
| 2026-05-05 08:06 | 50.09748 | -11.00135 | 49249 ft | 1126 kts | 244° |
| 2026-05-05 08:06 | 50.06239 | -11.11064 | 49343 ft | 1129 kts | 244° |
| 2026-05-05 08:06 | 49.99164 | -11.32904 | 49504 ft | 1133 kts | 243° |
| 2026-05-05 08:07 | 49.92018 | -11.54768 | 49637 ft | 1137 kts | 243° |
| 2026-05-05 08:07 | 49.84816 | -11.76651 | 49752 ft | 1140 kts | 243° |
| 2026-05-05 08:08 | 49.77578 | -11.98515 | 49849 ft | 1142 kts | 243° |
| 2026-05-05 08:08 | 49.70337 | -12.20226 | 49932 ft | 1145 kts | 243° |
| 2026-05-05 08:09 | 49.64192 | -12.38502 | 49995 ft | 1146 kts | 243° |
| 2026-05-05 08:09 | 49.55587 | -12.63846 | 50077 ft | 1148 kts | 243° |
| 2026-05-05 08:10 | 49.49335 | -12.82082 | 50134 ft | 1150 kts | 242° |
| 2026-05-05 08:10 | 49.41826 | -13.03804 | 50198 ft | 1151 kts | 242° |